Terminal Aerodrome Forecast
Issued by NWS

Home | Current Version | Previous Version | Text Only | Print | Product List | Glossary On
Versions: 1 2 3 4 5 6 7 8 9 10 11 12 13 14 15 16
000
FTUS41 KAKQ 022340
TAFPHF
TAF
KPHF 022340Z 0300/0324 28008KT P6SM -RA BKN040 OVC100
      TEMPO 0300/0301 4SM RA BR BKN025 OVC080
     FM030200 02004KT P6SM SCT040 OVC100
     FM030600 06005KT 4SM -SHRA OVC015
     FM030900 03004KT 2SM RA OVC008
     FM031400 11005KT 4SM BR OVC015=

USA.gov is the U.S. government's official web portal to all federal, state and local government web resources and services.